Terminal Aerodrome Forecast
Issued by NWS Quad Cities IA IL

Home | Current Version | Previous Version | Text Only | Print | Product List | Glossary On
Versions: 1 2 3 4 5 6 7 8 9 10 11 12 13 14 15 16 17
000
FTUS43 KDVN 021834 AAA
TAFMLI
TAF AMD
KMLI 021834Z 0219/0318 23012G22KT P6SM SCT080
     FM030000 24011KT P6SM SCT070
      TEMPO 0301/0304 3SM TSRA BKN035CB
     FM030400 29005KT P6SM BKN050
     FM030700 33005KT P6SM SKC=

USA.gov is the U.S. government's official web portal to all federal, state and local government web resources and services.